Time;durP1;ratioP1;P1;durP2;ratioP2;P2;SDS_P1;SDS_P2;PMS_P1;PMS_P2;Temp;Humidity;BMP_temperature;BMP_pressure;BME280_temperature;BME280_humidity;BME280_pressure;Samples;Min_cycle;Max_cycle;Signal;HPM_P1;HPM_P2
2022/08/10 00:01:30;;;;;;;4.05;1.90;;;20.30;99.90;;;;;;5026565;28;20113;-64
2022/08/10 00:03:56;;;;;;;5.00;1.50;;;20.30;99.90;;;;;;5022815;28;20088;-64
2022/08/10 00:06:21;;;;;;;3.38;1.60;;;20.30;99.90;;;;;;5024689;28;20025;-63
2022/08/10 00:08:47;;;;;;;3.38;1.75;;;20.20;99.90;;;;;;5023212;28;20021;-63
2022/08/10 00:11:12;;;;;;;4.57;1.52;;;20.30;99.90;;;;;;5021714;28;20435;-63
2022/08/10 00:13:38;;;;;;;5.82;1.67;;;20.30;99.90;;;;;;5023285;28;20021;-64
2022/08/10 00:16:04;;;;;;;3.55;1.60;;;20.20;99.90;;;;;;5023924;28;20127;-64
2022/08/10 00:18:30;;;;;;;3.88;1.60;;;20.30;99.90;;;;;;5022229;28;20033;-64
2022/08/10 00:20:55;;;;;;;5.35;1.60;;;20.30;99.90;;;;;;5025409;28;20029;-63
2022/08/10 00:23:21;;;;;;;2.42;1.48;;;20.10;99.90;;;;;;5026454;28;20361;-63
2022/08/10 00:25:47;;;;;;;5.85;1.60;;;20.10;99.90;;;;;;5033556;28;20076;-63
2022/08/10 00:28:12;;;;;;;3.25;1.80;;;20.00;99.90;;;;;;5026434;28;20014;-63
2022/08/10 00:30:38;;;;;;;3.22;1.80;;;19.90;99.90;;;;;;5027919;28;20029;-63
2022/08/10 00:33:04;;;;;;;5.32;1.80;;;20.20;99.90;;;;;;5024578;28;20026;-64
2022/08/10 00:35:29;;;;;;;3.67;1.50;;;20.40;99.90;;;;;;5028052;28;20057;-64
2022/08/10 00:37:55;;;;;;;3.83;1.83;;;20.20;99.90;;;;;;5029517;28;20030;-64
2022/08/10 00:40:21;;;;;;;4.68;1.63;;;20.20;99.90;;;;;;5021203;28;20017;-63
2022/08/10 00:42:47;;;;;;;4.38;1.80;;;20.00;99.90;;;;;;5026103;28;20040;-63
2022/08/10 00:45:12;;;;;;;2.75;1.80;;;20.00;99.90;;;;;;5029279;28;20037;-63
2022/08/10 00:47:38;;;;;;;7.20;2.00;;;20.10;99.90;;;;;;5026803;28;20443;-63
2022/08/10 00:50:06;;;;;;;4.95;2.05;;;20.00;99.90;;;;;;5027082;28;20018;-63
2022/08/10 00:52:33;;;;;;;5.32;2.38;;;19.90;99.90;;;;;;5026536;28;20033;-63
2022/08/10 00:54:59;;;;;;;2.90;1.90;;;20.00;99.90;;;;;;5026886;28;20049;-63
2022/08/10 00:57:26;;;;;;;6.97;2.00;;;20.00;99.90;;;;;;5022508;28;20048;-63
2022/08/10 00:59:52;;;;;;;4.15;1.60;;;20.00;99.90;;;;;;5024016;28;20040;-64
2022/08/10 01:02:17;;;;;;;6.57;1.80;;;19.90;99.90;;;;;;5022609;28;20465;-63
2022/08/10 01:04:43;;;;;;;4.03;2.08;;;19.80;99.90;;;;;;5026974;28;20009;-63
2022/08/10 01:07:24;;;;;;;2.78;1.73;;;19.70;99.90;;;;;;5026771;28;20170;-63
2022/08/10 01:10:32;;;;;;;3.13;2.08;;;19.70;99.90;;;;;;5026932;28;20013;-63
2022/08/10 01:13:23;;;;;;;2.78;1.90;;;19.80;99.90;;;;;;5025524;28;20365;-63
2022/08/10 01:15:56;;;;;;;5.47;2.05;;;19.70;99.90;;;;;;5025286;28;20076;-63
2022/08/10 01:18:40;;;;;;;;;;;19.60;99.90;;;;;;5029967;28;20426;-63
2022/08/10 01:21:15;;;;;;;3.13;2.00;;;19.60;99.90;;;;;;5026380;28;20406;-63
2022/08/10 01:24:23;;;;;;;6.57;2.00;;;19.50;99.90;;;;;;5025155;28;20445;-63
2022/08/10 01:27:22;;;;;;;5.68;2.20;;;19.40;99.90;;;;;;5024861;28;20025;-63
2022/08/10 01:29:55;;;;;;;3.78;2.05;;;19.50;99.90;;;;;;5032795;28;20025;-63
2022/08/10 01:32:46;;;;;;;3.05;2.10;;;19.40;99.90;;;;;;5025808;28;20394;-63
2022/08/10 01:35:20;;;;;;;5.72;2.03;;;19.40;99.90;;;;;;5030668;28;20025;-63
2022/08/10 01:38:10;;;;;;;5.82;2.13;;;19.50;99.90;;;;;;5027785;28;20040;-63
2022/08/10 01:40:53;;;;;;;3.67;2.05;;;19.40;99.90;;;;;;5018091;28;20476;-63
2022/08/10 01:43:20;;;;;;;3.80;2.17;;;19.40;99.90;;;;;;5029704;28;20036;-63
2022/08/10 01:45:51;;;;;;;4.00;2.40;;;19.60;99.90;;;;;;5022361;28;20492;-63
2022/08/10 01:48:29;;;;;;;9.50;2.60;;;19.60;99.90;;;;;;5026397;28;20021;-63
2022/08/10 01:51:10;;;;;;;6.68;2.00;;;19.50;99.90;;;;;;5024990;28;20099;-63
2022/08/10 01:54:06;;;;;;;7.43;2.40;;;19.20;99.90;;;;;;5026942;28;20026;-63
2022/08/10 01:56:37;;;;;;;5.85;2.60;;;19.20;99.90;;;;;;5025938;28;20503;-63
2022/08/10 01:59:13;;;;;;;4.72;1.95;;;19.10;99.90;;;;;;5029746;28;20091;-63
2022/08/10 02:01:42;;;;;;;6.13;2.28;;;19.10;99.90;;;;;;5029688;28;20036;-63
2022/08/10 02:04:12;;;;;;;4.32;2.53;;;19.30;99.90;;;;;;5023806;28;20120;-63
2022/08/10 02:06:43;;;;;;;6.03;2.70;;;19.30;99.90;;;;;;5025359;28;20033;-63
2022/08/10 02:09:13;;;;;;;8.27;2.47;;;19.10;99.90;;;;;;5026859;28;20053;-62
2022/08/10 02:11:39;;;;;;;4.25;2.38;;;19.00;99.90;;;;;;5026252;28;20060;-63
2022/08/10 02:14:05;;;;;;;5.80;1.85;;;19.10;99.90;;;;;;5024006;28;20675;-63
2022/08/10 02:16:33;;;;;;;5.55;2.55;;;19.00;99.90;;;;;;5025648;28;20076;-63
2022/08/10 02:19:00;;;;;;;4.82;2.85;;;19.00;99.90;;;;;;5024841;28;20099;-63
2022/08/10 02:21:28;;;;;;;5.55;2.47;;;19.10;99.90;;;;;;5026202;28;20484;-63
2022/08/10 02:23:55;;;;;;;6.43;2.67;;;19.10;99.90;;;;;;5024604;28;20069;-63
2022/08/10 02:26:21;;;;;;;5.20;2.45;;;19.10;99.90;;;;;;5029832;28;20163;-63
2022/08/10 02:28:47;;;;;;;4.53;2.70;;;19.00;99.90;;;;;;5024840;28;20009;-63
2022/08/10 02:31:17;;;;;;;4.28;2.92;;;18.90;99.90;;;;;;5025622;28;20025;-63
2022/08/10 02:33:46;;;;;;;5.45;2.60;;;19.00;99.90;;;;;;5022505;28;20034;-63
2022/08/10 02:36:13;;;;;;;6.70;2.85;;;18.90;99.90;;;;;;5023491;28;20037;-63
2022/08/10 02:38:54;;;;;;;5.20;2.90;;;18.70;99.90;;;;;;5023445;28;20108;-63
2022/08/10 02:41:37;;;;;;;4.80;3.10;;;18.60;99.90;;;;;;5014367;28;20056;-63
2022/08/10 02:44:08;;;;;;;5.50;2.88;;;18.60;99.90;;;;;;5025348;28;20032;-63
2022/08/10 02:46:44;;;;;;;6.90;3.00;;;18.60;99.90;;;;;;5029258;28;20033;-62
2022/08/10 02:49:20;;;;;;;5.03;3.00;;;18.60;99.90;;;;;;5024341;28;20029;-63
2022/08/10 02:51:52;;;;;;;9.13;3.17;;;18.50;99.90;;;;;;5022174;28;20022;-63
2022/08/10 02:54:25;;;;;;;7.30;3.30;;;18.70;99.90;;;;;;5021166;28;20026;-62
2022/08/10 02:57:17;;;;;;;5.63;3.00;;;18.70;99.90;;;;;;5024652;28;20752;-63
2022/08/10 03:00:00;;;;;;;8.65;2.90;;;18.70;99.90;;;;;;5024886;28;20045;-63
2022/08/10 03:02:33;;;;;;;7.78;3.38;;;18.60;99.90;;;;;;5021960;28;20104;-63
2022/08/10 03:05:03;;;;;;;5.68;2.97;;;18.70;99.90;;;;;;5024650;28;20496;-63
2022/08/10 03:07:36;;;;;;;5.20;2.80;;;18.80;99.90;;;;;;5024984;28;20032;-63
2022/08/10 03:10:05;;;;;;;4.10;2.72;;;19.10;99.90;;;;;;5030166;28;20133;-63
2022/08/10 03:12:33;;;;;;;4.60;3.00;;;18.60;99.90;;;;;;5026374;28;20033;-63
2022/08/10 03:14:59;;;;;;;5.95;3.33;;;18.50;99.90;;;;;;5027649;28;20261;-63
2022/08/10 03:17:26;;;;;;;4.30;3.10;;;18.50;99.90;;;;;;5022739;28;20120;-63
2022/08/10 03:19:56;;;;;;;6.40;3.42;;;18.50;99.90;;;;;;5023008;28;20271;-63
2022/08/10 03:22:23;;;;;;;6.05;3.35;;;18.40;99.90;;;;;;5027923;28;20132;-63
2022/08/10 03:24:52;;;;;;;7.72;3.28;;;18.30;99.90;;;;;;5023288;28;20040;-63
2022/08/10 03:27:18;;;;;;;7.30;3.50;;;18.30;99.90;;;;;;5029556;28;20026;-63
2022/08/10 03:29:45;;;;;;;6.30;3.40;;;18.50;99.90;;;;;;5025293;28;20037;-63
2022/08/10 03:32:12;;;;;;;6.45;3.40;;;18.60;99.90;;;;;;5028308;28;20025;-63
2022/08/10 03:34:41;;;;;;;10.95;3.67;;;18.70;99.90;;;;;;5024122;28;20014;-63
2022/08/10 03:37:07;;;;;;;8.05;3.42;;;18.50;99.90;;;;;;5022669;28;20460;-63
2022/08/10 03:39:32;;;;;;;6.68;3.58;;;18.30;99.90;;;;;;5025066;28;20037;-63
2022/08/10 03:42:01;;;;;;;9.25;3.70;;;18.40;99.90;;;;;;5015723;28;20061;-63
2022/08/10 03:44:31;;;;;;;8.48;3.67;;;18.40;99.90;;;;;;5023759;28;20033;-63
2022/08/10 03:46:59;;;;;;;7.50;3.75;;;18.30;99.90;;;;;;5021610;28;20029;-63
2022/08/10 03:49:27;;;;;;;6.50;3.70;;;18.50;99.90;;;;;;5020663;28;20051;-63
2022/08/10 03:51:53;;;;;;;7.28;4.00;;;18.30;99.90;;;;;;5025505;28;20033;-62
2022/08/10 03:54:20;;;;;;;5.57;3.90;;;18.00;99.90;;;;;;5022711;28;20033;-63
2022/08/10 03:56:46;;;;;;;5.55;3.80;;;17.80;99.90;;;;;;5026263;28;20613;-63
2022/08/10 03:59:13;;;;;;;7.55;4.25;;;17.80;99.90;;;;;;5023686;28;20043;-63
2022/08/10 04:01:44;;;;;;;6.68;4.00;;;17.80;99.90;;;;;;5021715;28;20481;-63
2022/08/10 04:04:10;;;;;;;6.40;3.70;;;17.80;99.90;;;;;;5028414;28;20022;-63
2022/08/10 04:06:36;;;;;;;6.03;3.85;;;17.90;99.90;;;;;;5022703;28;20102;-63
2022/08/10 04:09:03;;;;;;;7.38;4.10;;;17.90;99.90;;;;;;5025144;28;20396;-63
2022/08/10 04:11:29;;;;;;;7.65;3.90;;;17.80;99.90;;;;;;5023391;28;20622;-63
2022/08/10 04:13:55;;;;;;;8.25;4.00;;;18.00;99.90;;;;;;5021171;28;20067;-63
2022/08/10 04:16:20;;;;;;;9.57;4.30;;;17.90;99.90;;;;;;5020894;28;20045;-63
2022/08/10 04:18:46;;;;;;;9.73;3.78;;;18.00;99.90;;;;;;5019472;28;20033;-63
2022/08/10 04:21:17;;;;;;;12.00;4.00;;;18.20;99.90;;;;;;5025550;28;20057;-63
2022/08/10 04:23:46;;;;;;;5.00;3.75;;;18.00;99.90;;;;;;5027731;28;20116;-63
2022/08/10 04:26:16;;;;;;;5.40;3.90;;;18.00;99.90;;;;;;5021855;28;20052;-63
2022/08/10 04:28:42;;;;;;;6.10;3.58;;;18.00;99.90;;;;;;5022963;28;20108;-63
2022/08/10 04:31:14;;;;;;;5.88;3.72;;;17.80;99.90;;;;;;5022564;28;20033;-63
2022/08/10 04:33:44;;;;;;;8.07;3.85;;;18.20;99.90;;;;;;5022720;28;20664;-63
2022/08/10 04:36:11;;;;;;;5.63;4.03;;;18.00;99.90;;;;;;5022354;28;20118;-63
2022/08/10 04:38:41;;;;;;;7.25;3.65;;;17.90;99.90;;;;;;5019577;28;20029;-62
2022/08/10 04:41:08;;;;;;;8.07;3.80;;;17.90;99.90;;;;;;5023501;28;20031;-63
2022/08/10 04:43:36;;;;;;;5.47;3.60;;;17.90;99.90;;;;;;5025383;28;20029;-63
2022/08/10 04:46:02;;;;;;;7.90;4.72;;;17.90;99.90;;;;;;5018494;28;20722;-64
2022/08/10 04:48:28;;;;;;;30.73;25.00;;;18.10;99.90;;;;;;5022098;28;20091;-64
2022/08/10 04:50:53;;;;;;;8.70;4.65;;;18.30;99.90;;;;;;5023893;28;20642;-63
2022/08/10 04:53:19;;;;;;;9.25;4.30;;;18.20;99.90;;;;;;5026018;28;20025;-63
2022/08/10 04:55:45;;;;;;;7.05;3.92;;;18.20;99.90;;;;;;5026657;28;20029;-63
2022/08/10 04:58:10;;;;;;;7.45;3.83;;;18.10;99.90;;;;;;5030316;28;20135;-63
2022/08/10 05:00:36;;;;;;;7.90;4.22;;;18.10;99.90;;;;;;5025738;28;20177;-63
2022/08/10 05:03:02;;;;;;;9.88;4.20;;;18.10;99.90;;;;;;5026719;28;20017;-63
2022/08/10 05:05:27;;;;;;;8.18;4.28;;;18.10;99.90;;;;;;5026762;28;20041;-63
2022/08/10 05:07:53;;;;;;;8.10;4.43;;;18.00;99.90;;;;;;5026848;28;20049;-63
2022/08/10 05:10:18;;;;;;;7.85;4.13;;;18.10;99.90;;;;;;5028208;28;20534;-63
2022/08/10 05:12:45;;;;;;;9.07;4.28;;;18.20;99.90;;;;;;5036557;28;20500;-62
2022/08/10 05:15:12;;;;;;;8.68;5.00;;;18.20;99.90;;;;;;5025494;28;20476;-63
2022/08/10 05:17:40;;;;;;;10.68;4.80;;;18.20;99.90;;;;;;5027277;28;20021;-63
2022/08/10 05:20:08;;;;;;;8.90;4.57;;;18.00;99.90;;;;;;5030017;28;20480;-62
2022/08/10 05:22:35;;;;;;;6.93;4.60;;;18.10;99.90;;;;;;5028580;28;20163;-63
2022/08/10 05:25:00;;;;;;;6.47;4.20;;;17.90;99.90;;;;;;5027699;28;20017;-63
2022/08/10 05:27:26;;;;;;;7.40;4.18;;;18.00;99.90;;;;;;5033151;28;20040;-63
2022/08/10 05:29:52;;;;;;;8.30;4.70;;;18.10;99.90;;;;;;5022889;28;20026;-63
2022/08/10 05:32:17;;;;;;;11.73;4.80;;;18.20;99.90;;;;;;5025600;28;20035;-63
2022/08/10 05:34:44;;;;;;;6.65;4.53;;;18.30;99.90;;;;;;5023917;28;20363;-63
2022/08/10 05:37:11;;;;;;;9.25;4.80;;;18.30;99.90;;;;;;5026420;28;20017;-63
2022/08/10 05:39:38;;;;;;;8.48;5.10;;;18.30;99.90;;;;;;5016279;28;20472;-63
2022/08/10 05:42:05;;;;;;;6.22;4.43;;;18.40;99.90;;;;;;5017046;28;20041;-63
2022/08/10 05:44:31;;;;;;;32.05;20.75;;;18.40;99.90;;;;;;5020790;28;20032;-61
2022/08/10 05:46:57;;;;;;;10.27;5.38;;;18.50;99.90;;;;;;5020365;28;20025;-62
2022/08/10 05:49:23;;;;;;;10.75;4.68;;;18.60;99.90;;;;;;5022408;28;20040;-63
2022/08/10 05:51:49;;;;;;;16.23;4.95;;;18.60;99.90;;;;;;5025176;28;20500;-63
2022/08/10 05:54:15;;;;;;;10.10;5.13;;;18.70;99.90;;;;;;5024816;28;20203;-63
2022/08/10 05:56:44;;;;;;;12.18;4.88;;;18.80;99.90;;;;;;5020591;28;20042;-63
2022/08/10 05:59:11;;;;;;;10.68;5.45;;;18.80;99.90;;;;;;5020375;28;20037;-62
2022/08/10 06:01:42;;;;;;;9.13;4.55;;;18.90;99.90;;;;;;5020596;28;20021;-62
2022/08/10 06:04:10;;;;;;;7.38;4.75;;;19.10;99.90;;;;;;5031030;28;20032;-63
2022/08/10 06:06:37;;;;;;;10.25;4.72;;;19.00;99.90;;;;;;5025468;28;20029;-62
2022/08/10 06:09:04;;;;;;;12.70;4.93;;;19.10;99.90;;;;;;5028666;28;20048;-62
2022/08/10 06:11:32;;;;;;;9.35;4.55;;;19.10;99.90;;;;;;5027125;28;20108;-62
2022/08/10 06:16:46;;;;;;;10.88;4.60;;;19.20;99.90;;;;;;5022675;28;20106;-62
2022/08/10 06:19:13;;;;;;;8.32;4.32;;;19.20;99.90;;;;;;5021476;28;20029;-63
2022/08/10 06:21:39;;;;;;;9.90;4.43;;;19.30;99.90;;;;;;5026881;28;20043;-62
2022/08/10 06:24:09;;;;;;;6.85;4.50;;;19.30;99.90;;;;;;5030226;28;20048;-62
2022/08/10 06:26:36;;;;;;;11.70;4.65;;;19.40;99.90;;;;;;5032823;28;20017;-62
2022/08/10 06:29:08;;;;;;;13.65;4.50;;;19.40;99.90;;;;;;5028443;28;20095;-63
2022/08/10 06:31:44;;;;;;;7.63;4.30;;;19.50;99.90;;;;;;5028180;28;20260;-63
2022/08/10 06:34:11;;;;;;;8.55;4.70;;;19.70;99.90;;;;;;5027943;28;20420;-62
2022/08/10 06:36:39;;;;;;;9.75;5.10;;;19.80;99.90;;;;;;5030270;28;20079;-63
2022/08/10 06:39:06;;;;;;;7.32;4.25;;;19.70;99.90;;;;;;5026007;28;20021;-62
2022/08/10 06:41:44;;;;;;;7.90;4.50;;;19.80;99.90;;;;;;5023641;28;20056;-62
2022/08/10 06:44:14;;;;;;;10.30;5.03;;;20.00;99.90;;;;;;5029857;28;20044;-62
2022/08/10 06:46:46;;;;;;;11.05;4.55;;;20.00;99.90;;;;;;5026898;28;20417;-63
2022/08/10 06:49:14;;;;;;;9.43;4.72;;;20.00;99.90;;;;;;5023829;28;20021;-62
2022/08/10 06:51:42;;;;;;;8.05;4.47;;;20.20;99.90;;;;;;5027022;28;20033;-62
2022/08/10 06:54:10;;;;;;;8.82;4.30;;;20.30;99.90;;;;;;5025382;28;20021;-63
2022/08/10 06:56:40;;;;;;;11.32;3.85;;;20.40;99.90;;;;;;5024669;28;20103;-63
2022/08/10 06:59:15;;;;;;;8.38;4.32;;;20.40;99.90;;;;;;5022964;28;20176;-63
2022/08/10 07:01:45;;;;;;;9.57;4.75;;;20.50;99.90;;;;;;5020344;28;20488;-63
2022/08/10 07:04:17;;;;;;;12.80;3.75;;;20.40;99.90;;;;;;5024158;28;20742;-63
2022/08/10 07:06:46;;;;;;;13.60;4.35;;;20.50;99.90;;;;;;5025487;28;20230;-63
2022/08/10 07:09:16;;;;;;;8.55;4.35;;;20.60;99.90;;;;;;5022723;28;20025;-63
2022/08/10 07:11:44;;;;;;;11.55;4.50;;;20.70;99.90;;;;;;5030474;28;20036;-63
2022/08/10 07:14:12;;;;;;;10.23;4.53;;;20.70;99.90;;;;;;5022009;28;20704;-63
2022/08/10 07:16:43;;;;;;;14.68;4.22;;;20.90;99.90;;;;;;5027921;28;20038;-63
2022/08/10 07:19:09;;;;;;;8.38;4.10;;;21.00;99.90;;;;;;5031200;28;20028;-63
2022/08/10 07:21:38;;;;;;;8.88;4.05;;;21.00;99.90;;;;;;5029146;28;20029;-63
2022/08/10 07:24:08;;;;;;;8.00;4.05;;;21.00;99.90;;;;;;5030170;28;20413;-63
2022/08/10 07:26:41;;;;;;;11.45;4.53;;;21.20;99.90;;;;;;5031517;28;20025;-63
2022/08/10 07:29:08;;;;;;;7.25;3.70;;;21.30;99.90;;;;;;5018278;28;20017;-63
2022/08/10 07:31:35;;;;;;;12.18;4.32;;;21.30;99.90;;;;;;5024597;28;20977;-63
2022/08/10 07:34:05;;;;;;;7.60;3.72;;;21.40;99.90;;;;;;5020643;28;20025;-63
2022/08/10 07:36:32;;;;;;;14.45;4.13;;;21.50;99.90;;;;;;5021603;28;20445;-63
2022/08/10 07:38:59;;;;;;;12.23;4.10;;;21.70;99.90;;;;;;5018263;28;20030;-63
2022/08/10 07:41:29;;;;;;;9.30;3.83;;;21.80;99.90;;;;;;5025443;28;20021;-63
2022/08/10 07:43:57;;;;;;;7.72;4.22;;;21.80;99.90;;;;;;5021170;28;20022;-63
2022/08/10 07:46:25;;;;;;;14.63;4.32;;;21.90;99.90;;;;;;5024330;28;20160;-64
2022/08/10 07:49:01;;;;;;;10.57;3.95;;;22.00;99.90;;;;;;5025291;28;20090;-63
2022/08/10 07:51:27;;;;;;;8.93;3.45;;;22.10;99.90;;;;;;5021083;28;20036;-64
2022/08/10 07:53:54;;;;;;;6.60;3.42;;;22.20;99.90;;;;;;5017673;28;20598;-63
2022/08/10 07:56:27;;;;;;;6.60;3.55;;;22.10;99.90;;;;;;5023405;28;20045;-63
2022/08/10 07:59:04;;;;;;;8.13;3.83;;;22.40;99.90;;;;;;5022243;28;20034;-63
2022/08/10 08:01:33;;;;;;;10.55;3.35;;;22.40;99.90;;;;;;5017899;28;20177;-63
2022/08/10 08:04:00;;;;;;;8.75;3.88;;;22.40;99.90;;;;;;5024899;28;20058;-63
2022/08/10 08:06:31;;;;;;;9.07;3.20;;;22.50;99.90;;;;;;5022124;28;20536;-63
2022/08/10 08:08:59;;;;;;;6.10;3.17;;;22.70;99.90;;;;;;5020686;28;20385;-63
2022/08/10 08:11:26;;;;;;;7.55;3.30;;;22.90;99.90;;;;;;5023225;28;20108;-64
2022/08/10 08:13:53;;;;;;;5.72;3.15;;;23.00;99.90;;;;;;5024900;28;20072;-63
2022/08/10 08:16:20;;;;;;;12.32;3.67;;;23.20;99.90;;;;;;5022929;28;20146;-64
2022/08/10 08:18:48;;;;;;;8.10;3.03;;;23.30;99.90;;;;;;5018853;28;20030;-63
2022/08/10 08:21:14;;;;;;;8.35;3.15;;;23.20;99.90;;;;;;5023533;28;20058;-63
2022/08/10 08:23:40;;;;;;;7.05;3.33;;;23.30;99.90;;;;;;5020775;28;20022;-63
2022/08/10 08:26:07;;;;;;;11.98;2.95;;;23.40;99.90;;;;;;5022078;28;20086;-63
2022/08/10 08:28:34;;;;;;;10.68;2.95;;;23.40;99.90;;;;;;5017860;28;20025;-63
2022/08/10 08:31:01;;;;;;;7.65;2.83;;;23.60;99.90;;;;;;5022446;28;20083;-63
2022/08/10 08:33:28;;;;;;;9.68;3.50;;;23.60;99.90;;;;;;5016654;28;20032;-63
2022/08/10 08:35:55;;;;;;;5.97;2.95;;;23.70;99.90;;;;;;5023143;28;20075;-63
2022/08/10 08:38:22;;;;;;;11.43;3.08;;;23.80;99.90;;;;;;5015017;28;20037;-64
2022/08/10 08:40:58;;;;;;;29.88;19.13;;;23.80;99.90;;;;;;5020504;28;20456;-61
2022/08/10 08:43:47;;;;;;;8.60;3.05;;;23.90;99.90;;;;;;5028292;28;20071;-63
2022/08/10 08:46:34;;;;;;;6.35;2.97;;;24.20;99.90;;;;;;5021937;28;20017;-63
2022/08/10 08:49:47;;;;;;;10.50;3.22;;;24.20;99.90;;;;;;5023433;28;20377;-63
2022/08/10 08:52:55;;;;;;;7.90;3.05;;;24.40;99.90;;;;;;5025235;28;20037;-63
2022/08/10 08:55:31;;;;;;;5.72;2.83;;;24.40;99.90;;;;;;5020910;28;20030;-63
2022/08/10 08:58:24;;;;;;;8.77;2.92;;;24.50;99.90;;;;;;5018086;28;20040;-63
2022/08/10 09:01:22;;;;;;;10.00;2.65;;;24.70;99.90;;;;;;5024197;28;20104;-63
2022/08/10 09:04:12;;;;;;;11.57;2.90;;;24.90;99.90;;;;;;5018090;28;20032;-63
2022/08/10 09:07:07;;;;;;;6.72;3.20;;;24.80;99.90;;;;;;5019386;28;21542;-63
2022/08/10 09:09:50;;;;;;;7.07;2.95;;;24.90;99.90;;;;;;5018197;28;20380;-63
2022/08/10 09:12:32;;;;;;;6.15;2.80;;;24.90;99.90;;;;;;5013513;28;20508;-63
2022/08/10 09:15:07;;;;;;;6.18;2.97;;;25.10;99.90;;;;;;5021247;28;20844;-64
2022/08/10 09:18:03;;;;;;;7.15;2.80;;;25.10;99.90;;;;;;5011365;28;20030;-64
2022/08/10 09:20:41;;;;;;;6.50;2.80;;;25.20;99.90;;;;;;5022117;28;20183;-64
2022/08/10 09:23:30;;;;;;;6.55;2.95;;;25.30;99.90;;;;;;5026281;28;20029;-64
2022/08/10 09:26:09;;;;;;;7.18;2.83;;;25.40;99.90;;;;;;5031435;28;20880;-64
2022/08/10 09:28:39;;;;;;;12.85;3.15;;;25.30;99.90;;;;;;5028844;28;20040;-63
2022/08/10 09:31:05;;;;;;;7.88;3.00;;;25.10;99.90;;;;;;5021714;28;20025;-64
2022/08/10 09:33:55;;;;;;;8.50;3.22;;;25.50;99.90;;;;;;5023127;28;20709;-64
2022/08/10 09:36:24;;;;;;;5.07;2.90;;;25.50;99.90;;;;;;5021937;28;20477;-64
2022/08/10 09:38:56;;;;;;;10.13;3.03;;;25.60;99.90;;;;;;5024433;28;20627;-64
2022/08/10 09:41:33;;;;;;;13.52;4.78;;;25.70;99.90;;;;;;5020506;28;20400;-64
2022/08/10 09:44:20;;;;;;;9.02;2.97;;;25.70;99.90;;;;;;5023137;28;20068;-64
2022/08/10 09:47:39;;;;;;;9.35;3.17;;;25.80;99.90;;;;;;5024610;28;20109;-64
2022/08/10 09:50:26;;;;;;;6.32;2.47;;;25.90;99.90;;;;;;4979319;28;20145;-64
2022/08/10 09:53:04;;;;;;;6.90;3.78;;;25.90;99.90;;;;;;5022263;28;20025;-64
2022/08/10 09:55:48;;;;;;;7.30;3.28;;;26.10;99.90;;;;;;5020979;28;20033;-64
2022/08/10 09:58:25;;;;;;;6.28;2.78;;;26.10;99.90;;;;;;5023173;28;20022;-61
2022/08/10 10:01:00;;;;;;;9.77;2.90;;;26.30;99.90;;;;;;5023463;28;20475;-61
2022/08/10 10:03:32;;;;;;;6.00;2.88;;;26.40;99.90;;;;;;5026916;28;20029;-61
2022/08/10 10:06:12;;;;;;;5.03;2.85;;;26.40;99.90;;;;;;5026674;28;20381;-61
2022/08/10 10:09:13;;;;;;;4.53;2.80;;;26.40;99.90;;;;;;5026026;28;21335;-61
2022/08/10 10:12:06;;;;;;;9.13;3.08;;;26.50;99.90;;;;;;5014269;28;20067;-61
2022/08/10 10:18:01;;;;;;;4.78;3.00;;;26.80;99.90;;;;;;5021939;28;20091;-61
2022/08/10 10:20:59;;;;;;;5.45;3.00;;;26.50;99.90;;;;;;5024262;28;20033;-62
2022/08/10 10:24:02;;;;;;;3.85;2.75;;;26.90;99.90;;;;;;5027887;28;20040;-61
2022/08/10 10:26:41;;;;;;;9.57;5.93;;;26.80;99.90;;;;;;5025575;28;20028;-62
2022/08/10 10:29:28;;;;;;;5.70;3.08;;;26.70;99.90;;;;;;5021010;28;20359;-62
2022/08/10 10:32:11;;;;;;;5.60;2.78;;;26.70;99.90;;;;;;5024828;28;20427;-62
2022/08/10 10:34:46;;;;;;;4.60;2.78;;;26.70;99.90;;;;;;5022625;28;20101;-61
2022/08/10 10:37:13;;;;;;;5.65;2.88;;;26.70;99.90;;;;;;5024922;28;20173;-61
2022/08/10 10:39:43;;;;;;;7.82;2.60;;;26.90;99.90;;;;;;5026115;28;20548;-64
2022/08/10 10:42:36;;;;;;;4.53;2.95;;;26.90;99.90;;;;;;5026791;28;20022;-65
2022/08/10 10:45:03;;;;;;;3.70;2.92;;;26.90;99.90;;;;;;5028990;28;20032;-64
2022/08/10 10:47:54;;;;;;;5.07;2.75;;;27.00;99.90;;;;;;5025426;28;20025;-64
2022/08/10 10:50:42;;;;;;;6.45;2.97;;;26.80;99.90;;;;;;5026821;28;20115;-65
2022/08/10 10:53:29;;;;;;;4.97;2.97;;;26.80;99.90;;;;;;5020062;28;20128;-64
2022/08/10 10:56:04;;;;;;;48.40;41.50;;;26.90;99.90;;;;;;5018015;28;20524;-65
2022/08/10 10:59:07;;;;;;;5.03;2.55;;;27.00;99.90;;;;;;5019062;28;20034;-65
2022/08/10 11:01:42;;;;;;;5.80;3.57;;;26.90;99.90;;;;;;5023307;28;20582;-65
2022/08/10 11:04:17;;;;;;;7.32;3.53;;;27.10;99.90;;;;;;5026556;28;21055;-64
2022/08/10 11:06:55;;;;;;;7.40;3.45;;;27.00;99.90;;;;;;5027138;28;20094;-65
2022/08/10 11:09:35;;;;;;;4.70;2.85;;;27.00;99.90;;;;;;5019840;28;20432;-65
2022/08/10 11:12:26;;;;;;;11.15;3.05;;;27.20;99.90;;;;;;5027499;28;20146;-65
2022/08/10 11:15:08;;;;;;;6.53;2.88;;;27.00;99.90;;;;;;5026186;28;20546;-65
2022/08/10 11:17:47;;;;;;;5.20;2.70;;;27.20;99.90;;;;;;5021370;28;20072;-65
2022/08/10 11:20:14;;;;;;;11.18;2.60;;;27.20;99.90;;;;;;5021938;28;20036;-65
2022/08/10 11:23:19;;;;;;;7.50;2.90;;;27.30;99.90;;;;;;5024716;28;20440;-65
2022/08/10 11:25:53;;;;;;;6.63;2.90;;;27.40;99.90;;;;;;5027497;28;20033;-64
2022/08/10 11:28:29;;;;;;;7.13;2.50;;;27.20;99.90;;;;;;5020828;28;20021;-65
2022/08/10 11:31:05;;;;;;;5.57;3.20;;;27.20;99.90;;;;;;5019009;28;20587;-65
2022/08/10 11:34:01;;;;;;;3.58;2.53;;;27.50;99.90;;;;;;5025968;28;20044;-64
2022/08/10 11:36:48;;;;;;;8.73;2.72;;;27.40;99.90;;;;;;5016625;28;20070;-65
2022/08/10 11:39:20;;;;;;;4.80;2.47;;;27.30;99.90;;;;;;5009518;28;20503;-65
2022/08/10 11:41:53;;;;;;;5.25;2.70;;;27.20;99.90;;;;;;5019636;28;20799;-64
2022/08/10 11:44:28;;;;;;;4.57;2.63;;;27.20;99.90;;;;;;5020891;28;20033;-65
2022/08/10 11:47:09;;;;;;;5.03;2.72;;;27.10;99.90;;;;;;5025997;28;20037;-65
2022/08/10 11:49:56;;;;;;;7.28;2.60;;;27.20;99.90;;;;;;5019798;28;20276;-65
2022/08/10 11:52:35;;;;;;;7.82;3.15;;;27.30;99.90;;;;;;5025208;28;20032;-65
2022/08/10 11:55:11;;;;;;;4.32;2.55;;;27.20;99.90;;;;;;5019778;28;20348;-65
2022/08/10 11:57:37;;;;;;;5.53;2.80;;;27.20;99.90;;;;;;5020647;28;20033;-65
2022/08/10 12:00:06;;;;;;;7.38;2.97;;;27.60;99.90;;;;;;5019956;28;20519;-65
2022/08/10 12:02:38;;;;;;;10.88;3.20;;;27.70;99.90;;;;;;5019990;28;20069;-65
2022/08/10 12:05:13;;;;;;;8.07;2.85;;;27.50;99.90;;;;;;5022524;28;20104;-65
2022/08/10 12:07:52;;;;;;;6.03;2.78;;;27.60;99.90;;;;;;5021301;28;20025;-65
2022/08/10 12:10:20;;;;;;;4.90;2.60;;;27.80;99.90;;;;;;5022126;28;20026;-64
2022/08/10 12:13:20;;;;;;;7.70;2.55;;;27.80;99.90;;;;;;5020003;28;20025;-65
2022/08/10 12:16:06;;;;;;;7.28;2.70;;;27.80;99.90;;;;;;5024070;28;20252;-66
2022/08/10 12:19:09;;;;;;;4.50;2.63;;;27.70;99.90;;;;;;5026937;28;20087;-65
2022/08/10 12:21:43;;;;;;;7.27;2.60;;;27.50;99.90;;;;;;5027444;28;20038;-65
2022/08/10 12:24:32;;;;;;;4.88;2.70;;;27.60;99.90;;;;;;5025523;28;20310;-65
2022/08/10 12:27:14;;;;;;;4.32;2.30;;;27.70;99.90;;;;;;5024929;28;20028;-65
2022/08/10 12:29:52;;;;;;;3.27;2.40;;;27.80;99.90;;;;;;5026962;28;20056;-64
2022/08/10 12:32:22;;;;;;;46.38;39.90;;;27.80;99.90;;;;;;5027961;28;20155;-65
2022/08/10 12:35:12;;;;;;;4.60;2.63;;;27.60;99.90;;;;;;5020899;28;20036;-64
2022/08/10 12:38:01;;;;;;;4.63;2.83;;;27.60;99.90;;;;;;5029431;28;20030;-65
2022/08/10 12:40:30;;;;;;;5.35;2.22;;;27.50;99.90;;;;;;5028570;28;20030;-65
2022/08/10 12:43:20;;;;;;;5.20;2.60;;;27.80;99.90;;;;;;5025335;28;20647;-65
2022/08/10 12:46:02;;;;;;;4.07;2.20;;;27.60;99.90;;;;;;5025701;28;20034;-65
2022/08/10 12:48:38;;;;;;;3.35;2.47;;;27.70;99.90;;;;;;5026407;28;20037;-65
2022/08/10 12:51:15;;;;;;;8.43;2.78;;;27.80;99.90;;;;;;5036456;28;20028;-65
2022/08/10 12:53:51;;;;;;;5.95;2.60;;;27.70;99.90;;;;;;5026402;28;20241;-65
2022/08/10 12:56:30;;;;;;;2.92;2.30;;;27.80;99.40;;;;;;5022624;28;20072;-65
2022/08/10 12:58:57;;;;;;;3.90;2.50;;;28.20;99.90;;;;;;5025049;28;20507;-65
2022/08/10 13:01:32;;;;;;;4.75;2.53;;;28.00;99.30;;;;;;5030645;28;20280;-65
2022/08/10 13:04:03;;;;;;;4.80;2.25;;;27.80;96.80;;;;;;5037625;28;20082;-65
2022/08/10 13:06:30;;;;;;;2.85;2.30;;;28.00;99.50;;;;;;5027998;28;21080;-65
2022/08/10 13:09:08;;;;;;;2.78;2.10;;;27.90;99.80;;;;;;5026392;28;20637;-65
2022/08/10 13:11:41;;;;;;;5.32;2.30;;;28.00;98.00;;;;;;5023041;28;20100;-65
2022/08/10 13:14:20;;;;;;;5.28;2.22;;;27.80;99.90;;;;;;5025474;28;20448;-65
2022/08/10 13:16:47;;;;;;;9.38;3.35;;;28.00;97.40;;;;;;5019263;28;20022;-66
2022/08/10 13:19:16;;;;;;;5.18;2.38;;;27.80;98.60;;;;;;5025649;28;20379;-66
2022/08/10 13:21:42;;;;;;;6.32;4.00;;;27.80;99.90;;;;;;5025747;28;20041;-64
2022/08/10 13:24:16;;;;;;;17.13;13.15;;;27.90;98.90;;;;;;5022431;28;20755;-62